• Join FlightAware (Why Join?)
  • Login
  • US Flag 
10:24AM EDT


 

Airport Tracker/Info


-or-


 

Live Flight TrackerFlight Track Log ✈ UAL4536 ✈ 17-Apr-2013 ✈ KIAH - KCLT

Flight Track Log - Related Links

Times and Time Zones

All times are in EDT time to prevent confusion due to time zone crossing. See the UAL4536 flight status page for this flight to view local times or setup timezone preferences in your user account.

Time Position Orientation Groundspeed Altitude Reporting Facility
EDT Latitude Longitude Course Direction KTS MPH feet Rate Location/Type
02:07PM 29.9594 -95.3414 90° East 146 168 700  Level Houston Center
02:09PM 29.9406 -95.2739 108° East 221 254 2,400 1,440 Climbing Houston Center
02:10PM 29.9292 -95.1956 100° East 250 288 4,000 780 Climbing Houston Center
02:11PM 29.9258 -95.1142 93° East 263 303 4,100 780 Climbing Houston Center
02:12PM 29.9833 -94.6762 90° East  Level FlightAware Approximate
02:12PM 29.9319 -95.0242 85° East 270 311 5,700  Level Houston Center
02:13PM 29.9834 -94.5448 90° East  Level FlightAware Approximate
02:13PM 29.9386 -94.9364 85° East 274 315 7,800  Level Houston Center
02:14PM 29.9478 -94.8339 84° East 287 330 9,900 1,740 Climbing Houston Center
02:15PM 29.9583 -94.7456 82° East 283 326 11,600 1,440 Climbing Houston Center
02:16PM 29.9661 -94.6536 84° East 285 328 12,900 1,440 Climbing Houston Center
02:17PM 29.9744 -94.5603 84° East 292 336 14,600 1,560 Climbing Houston Center
02:18PM 29.9822 -94.4644 85° East 297 342 16,200 1,500 Climbing Houston Center
02:19PM 29.9917 -94.3500 85° East 300 345 17,800 1,380 Climbing Houston Center
02:20PM 30.0017 -94.2497 83° East 311 358 19,100 1,200 Climbing Houston Center
02:21PM 30.0139 -94.1450 82° East 326 375 20,400 1,260 Climbing Houston Center
02:22PM 30.0272 -94.0378 82° East 335 386 21,800 1,140 Climbing Houston Center
02:23PM 30.0408 -93.9272 82° East 345 397 22,800 900 Climbing Houston Center
02:24PM 30.0544 -93.8103 82° East 361 415 23,700 900 Climbing Houston Center
02:25PM 30.0731 -93.6631 82° East 382 440 24,700 780 Climbing Houston Center
02:26PM 30.0872 -93.5506 82° East 395 455 25,400 780 Climbing Houston Center
02:27PM 30.1047 -93.3933 83° East 413 475 26,400 840 Climbing Houston Center
02:28PM 30.1217 -93.2647 81° East 410 472 27,200 780 Climbing Houston Center
02:29PM 30.1381 -93.1306 82° East 418 481 28,100 780 Climbing Houston Center
02:30PM 30.1917 -93.0133 62° Northeast 421 484 28,900 720 Climbing Houston Center
02:32PM 30.2542 -92.8983 58° Northeast 424 488 29,700 720 Climbing Houston Center
02:33PM 30.3167 -92.7836 58° Northeast 423 487 30,500 840 Climbing Houston Center
02:34PM 30.3931 -92.6442 58° Northeast 427 491 31,500 840 Climbing Houston Center
02:35PM 30.4564 -92.5250 58° Northeast 432 497 32,300 780 Climbing Houston Center
02:36PM 30.5197 -92.4078 58° Northeast 432 497 33,200 780 Climbing Houston Center
02:37PM 30.5833 -92.2900 58° Northeast 433 498 34,000 720 Climbing Houston Center
02:38PM 30.6467 -92.1717 58° Northeast 435 501 34,800 480 Climbing Houston Center
02:39PM 30.7233 -92.0292 58° Northeast 435 501 35,000 60 Climbing Houston Center
02:40PM 30.7906 -91.9042 58° Northeast 452 520 35,000  Level Houston Center
02:41PM 30.8586 -91.7756 58° Northeast 466 536 35,000  Level Houston Center
02:42PM 30.9289 -91.6439 58° Northeast 477 549 35,000  Level Houston Center
02:43PM 31.0103 -91.4917 58° Northeast 467 537 35,000  Level Houston Center
02:44PM 31.0697 -91.3803 58° Northeast 456 525 35,000  Level Houston Center
02:45PM 31.1331 -91.2581 59° Northeast 443 510 35,000  Level Houston Center
02:46PM 31.1961 -91.1375 59° Northeast 435 501 35,000  Level Houston Center
02:47PM 31.2692 -90.9967 59° Northeast 425 489 35,000  Level Houston Center
02:48PM 31.3308 -90.8803 58° Northeast 420 483 35,000  Level Houston Center
02:49PM 31.3922 -90.7608 59° Northeast 427 491 35,000  Level Houston Center
02:50PM 31.4567 -90.6356 59° Northeast 444 511 35,000  Level Houston Center
02:51PM 31.5231 -90.5053 59° Northeast 460 529 35,000 -60 Level Houston Center
02:52PM 31.5917 -90.3714 59° Northeast 475 547 34,900  Descending Houston Center
02:53PM 31.6747 -90.2103 59° Northeast 479 551 35,000  Climbing Houston Center
02:54PM 31.7300 -90.0983 60° Northeast 468 539 35,000  Level Memphis Center
02:55PM 31.7986 -89.9664 59° Northeast 468 539 35,000  Level Memphis Center
02:56PM 31.8650 -89.8339 59° Northeast 468 539 35,000  Level Memphis Center
02:57PM 31.9333 -89.7014 59° Northeast 468 539 35,000  Level Memphis Center
02:58PM 32.0014 -89.5661 59° Northeast 468 539 35,000  Level Memphis Center
02:59PM 32.0756 -89.4183 59° Northeast 470 541 35,000  Level Memphis Center
03:00PM 32.1411 -89.2828 60° Northeast 470 541 35,000  Level Memphis Center
03:01PM 32.2108 -89.1494 58° Northeast 465 535 35,000  Level Memphis Center
03:02PM 32.2783 -89.0133 60° Northeast 465 535 35,000  Level Memphis Center
03:03PM 32.3436 -88.8794 60° Northeast 470 541 35,000  Level Memphis Center
03:04PM 32.4067 -88.7431 61° Northeast 470 541 35,000  Level Memphis Center
03:05PM 32.4736 -88.6064 60° Northeast 470 541 35,000  Level Memphis Center
03:06PM 32.5364 -88.4647 62° Northeast 470 541 35,000  Level Memphis Center
03:07PM 32.6031 -88.3253 60° Northeast 480 552 35,000  Level Memphis Center
03:09PM 32.7472 -88.0075 62° Northeast 515 593 35,000  Level Atlanta Center
03:10PM 32.8122 -87.8647 62° Northeast 511 588 35,000  Level Atlanta Center
03:11PM 32.8744 -87.7389 59° Northeast 497 572 35,000  Level Atlanta Center
03:12PM 32.9414 -87.5931 61° Northeast 492 566 35,000  Level Atlanta Center
03:13PM 33.0061 -87.4497 62° Northeast 487 560 35,000  Level Atlanta Center
03:14PM 33.0731 -87.2886 64° Northeast 487 560 35,000  Level Atlanta Center
03:15PM 33.1372 -87.1447 62° Northeast 487 560 35,000  Level Atlanta Center
03:16PM 33.2011 -87.0128 60° Northeast 487 560 35,000  Level Atlanta Center
03:17PM 33.2483 -86.8631 69° East 487 560 35,000  Level Atlanta Center
03:18PM 33.2750 -86.7050 79° East 482 555 35,000  Level Atlanta Center
03:19PM 33.2989 -86.5514 79° East 476 548 35,000  Level Atlanta Center
03:20PM 33.3250 -86.3956 79° East 476 548 35,000  Level Atlanta Center
03:21PM 33.3489 -86.2397 80° East 476 548 35,000  Level Atlanta Center
03:22PM 33.3744 -86.0786 79° East 476 548 35,000  Level Atlanta Center
03:23PM 33.4000 -85.9300 78° East 476 548 35,000  Level Atlanta Center
03:24PM 33.4275 -85.7589 79° East 471 542 35,000  Level Atlanta Center
03:25PM 33.4503 -85.6047 80° East 464 534 35,000  Level Atlanta Center
03:26PM 33.4772 -85.4458 78° East 469 540 35,000  Level Atlanta Center
03:27PM 33.5019 -85.2919 79° East 469 540 35,000  Level Atlanta Center
03:28PM 33.5244 -85.1303 80° East 474 545 35,000  Level Atlanta Center
03:29PM 33.5486 -84.9736 79° East 474 545 35,000  Level Atlanta Center
03:30PM 33.5706 -84.8167 80° East 479 551 35,000  Level Atlanta Center
03:31PM 33.5922 -84.6722 80° East 485 558 35,000  Level Atlanta Center
03:32PM 33.6117 -84.5128 82° East 485 558 35,000  Level Atlanta Center
03:33PM 33.6456 -84.3581 75° East 485 558 35,000  Level Atlanta Center
03:34PM 33.6961 -84.1836 71° East 485 558 35,000  Level Atlanta Center
03:35PM 33.7419 -84.0289 70° East 499 574 35,000  Level Atlanta Center
03:36PM 33.7817 -83.8864 71° East 499 574 35,000  Level Atlanta Center
03:37PM 33.8253 -83.7339 71° East 494 568 35,000  Level Atlanta Center
03:38PM 33.8686 -83.5758 72° East 494 568 35,000  Level Atlanta Center
03:39PM 33.9117 -83.4156 72° East 494 568 35,000 -60 Level Atlanta Center
03:40PM 33.9567 -83.2575 71° East 494 568 34,900 -720 Descending Atlanta Center
03:41PM 34.0097 -83.1042 67° East 494 568 33,600 -1,800 Descending Atlanta Center
03:42PM 34.0797 -82.9678 58° Northeast 481 554 31,400 -2,220 Descending Atlanta Center
03:43PM 34.1472 -82.8314 59° Northeast 475 547 29,200 -2,100 Descending Atlanta Center
03:44PM 34.2231 -82.6947 56° Northeast 456 525 27,300 -1,380 Descending Atlanta Center
03:45PM 34.2803 -82.5781 59° Northeast 450 518 26,500 -1,200 Descending Atlanta Center
03:46PM 34.3475 -82.4486 58° Northeast 450 518 25,000 -1,260 Descending Atlanta Center
03:47PM 34.4167 -82.3164 58° Northeast 455 524 24,000 -1,380 Descending Atlanta Center
03:48PM 34.4711 -82.1869 63° Northeast 447 514 22,300 -2,220 Descending Atlanta Center
03:49PM 34.5214 -82.0597 64° Northeast 426 490 19,600 -2,580 Descending Atlanta Center
03:50PM 34.5694 -81.9400 64° Northeast 408 470 17,200 -2,460 Descending Atlanta Center
03:52PM 34.6356 -81.7944 61° Northeast 364 419 14,100 -2,220 Descending Atlanta Center
03:52PM 34.6783 -81.7378 47° Northeast 353 406 12,800 -1,200 Descending Atlanta Center
03:53PM 34.7375 -81.6578 48° Northeast 320 368 12,000 -900 Descending Atlanta Center
03:54PM 34.7797 -81.5781 57° Northeast 288 331 11,000 -660 Descending Atlanta Center
03:55PM 34.8297 -81.4781 59° Northeast 297 342 10,700 -1,260 Descending Atlanta Center
03:57PM 34.8689 -81.3419 71° East 275 316 7,800 -1,860 Descending FAA TRACON SMA TRACON (SMA)
03:57PM 34.8792 -81.3156 65° Northeast 287 330 7,300 -1,140 Descending FAA TRACON SMA TRACON (SMA)
03:58PM 34.8883 -81.2861 69° East 277 319 7,000 -300 Descending Atlanta Center
03:58PM 34.9039 -81.2325 71° East 273 314 7,000  Level Atlanta Center
03:59PM 34.9153 -81.1917 71° East 267 307 7,000 -360 Level Atlanta Center
04:00PM 34.9347 -81.1075 74° East 270 311 6,600 -600 Descending FAA TRACON SMA TRACON (SMA)
04:00PM 34.9414 -81.0811 73° East 269 310 6,300 -1,200 Descending FAA TRACON SMA TRACON (SMA)
04:00PM 34.9481 -81.0547 73° East 266 306 5,800 -1,440 Descending FAA TRACON SMA TRACON (SMA)
04:01PM 34.9644 -81.0300 51° Northeast 257 296 5,400 -1,380 Descending FAA TRACON SMA TRACON (SMA)
04:01PM 34.9839 -81.0189 25° Northeast 250 288 4,900 -1,500 Descending FAA TRACON SMA TRACON (SMA)
04:01PM 35.0033 -81.0086 23° Northeast 249 287 4,400 -1,680 Descending FAA TRACON SMA TRACON (SMA)
04:02PM 35.0269 -80.9958 24° Northeast 248 285 3,800 -1,500 Descending FAA TRACON SMA TRACON (SMA)
04:02PM 35.0467 -80.9844 25° Northeast 247 284 3,400 -1,260 Descending FAA TRACON SMA TRACON (SMA)
04:02PM 35.0653 -80.9739 25° Northeast 242 278 3,000 -780 Descending FAA TRACON SMA TRACON (SMA)
04:03PM 35.0869 -80.9619 24° Northeast 224 258 2,900 -780 Descending FAA TRACON SMA TRACON (SMA)
04:03PM 35.1022 -80.9531 25° Northeast 205 236 2,500 -1,200 Descending FAA TRACON SMA TRACON (SMA)
04:03PM 35.1206 -80.9453 19° North 198 228 2,100 -1,200 Descending FAA TRACON SMA TRACON (SMA)